Csl Tecumseh — C6ZJ6 — position and weather

sailwx.info

Track history (hours):
 
Tides and Currents Weather Stations Pressure Air Temp Water Temp Dewpoint Dewpoint Depression Visibility Wind Speed Wind Dir Waves Ship Positions

Csl Tecumseh

Last reported at 2017-Sep-25 11:00 UTC. Time now 2017-Sep-25 11:20 UTC.
Position N 35°01' W 121°17'.

Length 229 m; draft 8.7 m.

Type: Cargo ship. MMSI: 311056900.

Date/timePositionNaut miles runAvg speedWind from/ knotsBaromVisibWave heightAir tempDewpointWater temp
2017-Sep-25 11:00N 35°01' W 121°17'611.8
2017-Sep-25 10:30N 34°56' W 121°14'612.0
2017-Sep-25 10:00N 34°51' W 121°10'612.0
2017-Sep-25 09:31N 34°46' W 121°06'612.1
2017-Sep-25 09:00N 34°40' W 121°03'612.0
2017-Sep-25 08:30N 34°35' W 120°59'612.0
2017-Sep-25 08:00N 34°30' W 120°55'510.3
2017-Sep-25 07:28N 34°26' W 120°51'4 9.3
2017-Sep-25 07:00N 34°25' W 120°45'5 9.3
2017-Sep-25 06:30N 34°24' W 120°40'4 9.0
2017-Sep-25 06:01N 34°22' W 120°35'4 7.3
2017-Sep-25 05:26N 34°21' W 120°30'4 9.5
2017-Sep-25 04:59N 34°20' W 120°25'4 9.3
2017-Sep-25 04:30N 34°19' W 120°20'611.3
2017-Sep-25 03:58N 34°17' W 120°13'612.1
2017-Sep-25 03:31N 34°16' W 120°06'612.3
2017-Sep-25 03:00N 34°14' W 119°59'612.1
2017-Sep-25 02:30N 34°13' W 119°52'611.8
2017-Sep-25 02:00N 34°11' W 119°45'611.5
2017-Sep-25 01:28N 34°09' W 119°38'511.5
2017-Sep-25 01:00N 34°08' W 119°32'611.5
2017-Sep-25 00:31N 34°07' W 119°25'611.1
2017-Sep-25 00:00N 34°05' W 119°19'611.4
2017-Sep-24 23:31N 34°03' W 119°12'611.7
2017-Sep-24 23:01N 33°60' W 119°06'611.2
2017-Sep-24 22:30N 33°57' W 119°00'610.0
2017-Sep-24 21:55N 33°54' W 118°54'410.0
2017-Sep-24 21:31N 33°52' W 118°50'5 9.3
2017-Sep-24 21:00N 33°50' W 118°45'5 9.6
2017-Sep-24 20:28N 33°47' W 118°40'4 9.8
2017-Sep-24 20:01N 33°45' W 118°35'5 9.7
2017-Sep-24 19:30N 33°42' W 118°30'5 9.6
2017-Sep-24 19:00N 33°40' W 118°25'5 9.9
2017-Sep-24 18:31N 33°38' W 118°20'5 9.4
2017-Sep-24 18:00N 33°38' W 118°14'5 9.8
2017-Sep-24 17:31N 33°43' W 118°11'3 5.8
2017-Sep-24 17:00N 33°45' W 118°13'1 2.0
2017-Sep-24 16:30N 33°46' W 118°13'0 0.2
2017-Sep-24 16:01N 33°46' W 118°13'0 0.0
2017-Sep-24 15:21N 33°46' W 118°13'0 0.0
2017-Sep-24 14:57N 33°46' W 118°13'0 0.0
2017-Sep-24 14:27N 33°46' W 118°13'0 0.0
2017-Sep-24 14:00N 33°46' W 118°13'0 0.0
2017-Sep-24 13:30N 33°46' W 118°13'0 0.0
2017-Sep-24 12:57N 33°46' W 118°13'0 0.0
2017-Sep-24 12:30N 33°46' W 118°13'0 0.0
2017-Sep-24 11:57N 33°46' W 118°13'0 0.0
2017-Sep-24 11:27N 33°46' W 118°13'0 0.0
2017-Sep-24 10:54N 33°46' W 118°13'0 0.0
2017-Sep-24 10:30N 33°46' W 118°13'0 0.0
2017-Sep-24 10:00N 33°46' W 118°13'0 0.0
2017-Sep-24 09:30N 33°46' W 118°13'0 0.0
2017-Sep-24 09:00N 33°46' W 118°13'0 0.0
2017-Sep-24 08:27N 33°46' W 118°13'0 0.0
2017-Sep-24 06:18N 33°46' W 118°13'0 0.0
2017-Sep-24 05:57N 33°46' W 118°13'0 0.0
2017-Sep-24 05:30N 33°46' W 118°13'0 0.0
2017-Sep-24 05:00N 33°46' W 118°13'0 0.0
2017-Sep-24 04:30N 33°46' W 118°13'0 0.0
2017-Sep-24 04:00N 33°46' W 118°13'0 0.0
2017-Sep-24 03:30N 33°46' W 118°13'0 0.0
2017-Sep-24 03:00N 33°46' W 118°13'0 0.0
2017-Sep-24 02:30N 33°46' W 118°13'0 0.0
2017-Sep-24 02:00N 33°46' W 118°13'0 0.0
2017-Sep-24 01:30N 33°46' W 118°13'0 0.0
2017-Sep-24 00:57N 33°46' W 118°13'0 0.0
2017-Sep-24 00:21N 33°46' W 118°13'0 0.0
2017-Sep-24 00:00N 33°46' W 118°13'0 0.0
2017-Sep-23 23:24N 33°46' W 118°13'0 0.0
2017-Sep-23 22:57N 33°46' W 118°13'0 0.0
2017-Sep-23 22:30N 33°46' W 118°13'0 0.0
2017-Sep-23 21:15N 33°46' W 118°13'0 0.0
2017-Sep-23 20:57N 33°46' W 118°13'  
Track history (hours):
 
Tides and Currents Weather Stations Pressure Air Temp Water Temp Dewpoint Dewpoint Depression Visibility Wind Speed Wind Dir Waves Ship Positions

Csl Tecumseh

Last reported at 2017-Sep-25 11:00 UTC. Time now 2017-Sep-25 11:20 UTC.
Position N 35°01' W 121°17'.

Length 229 m; draft 8.7 m.

Type: Cargo ship. MMSI: 311056900.

Date/timePositionNaut miles runAvg speedWind from/ knotsBaromVisibWave heightAir tempDewpointWater temp
2017-Sep-25 11:00N 35°01' W 121°17'611.8
2017-Sep-25 10:30N 34°56' W 121°14'612.0
2017-Sep-25 10:00N 34°51' W 121°10'612.0
2017-Sep-25 09:31N 34°46' W 121°06'612.1
2017-Sep-25 09:00N 34°40' W 121°03'612.0
2017-Sep-25 08:30N 34°35' W 120°59'612.0
2017-Sep-25 08:00N 34°30' W 120°55'510.3
2017-Sep-25 07:28N 34°26' W 120°51'4 9.3
2017-Sep-25 07:00N 34°25' W 120°45'5 9.3
2017-Sep-25 06:30N 34°24' W 120°40'4 9.0
2017-Sep-25 06:01N 34°22' W 120°35'4 7.3
2017-Sep-25 05:26N 34°21' W 120°30'4 9.5
2017-Sep-25 04:59N 34°20' W 120°25'4 9.3
2017-Sep-25 04:30N 34°19' W 120°20'611.3
2017-Sep-25 03:58N 34°17' W 120°13'612.1
2017-Sep-25 03:31N 34°16' W 120°06'612.3
2017-Sep-25 03:00N 34°14' W 119°59'612.1
2017-Sep-25 02:30N 34°13' W 119°52'611.8
2017-Sep-25 02:00N 34°11' W 119°45'611.5
2017-Sep-25 01:28N 34°09' W 119°38'511.5
2017-Sep-25 01:00N 34°08' W 119°32'611.5
2017-Sep-25 00:31N 34°07' W 119°25'611.1
2017-Sep-25 00:00N 34°05' W 119°19'611.4
2017-Sep-24 23:31N 34°03' W 119°12'611.7
2017-Sep-24 23:01N 33°60' W 119°06'611.2
2017-Sep-24 22:30N 33°57' W 119°00'610.0
2017-Sep-24 21:55N 33°54' W 118°54'410.0
2017-Sep-24 21:31N 33°52' W 118°50'5 9.3
2017-Sep-24 21:00N 33°50' W 118°45'5 9.6
2017-Sep-24 20:28N 33°47' W 118°40'4 9.8
2017-Sep-24 20:01N 33°45' W 118°35'5 9.7
2017-Sep-24 19:30N 33°42' W 118°30'5 9.6
2017-Sep-24 19:00N 33°40' W 118°25'5 9.9
2017-Sep-24 18:31N 33°38' W 118°20'5 9.4
2017-Sep-24 18:00N 33°38' W 118°14'5 9.8
2017-Sep-24 17:31N 33°43' W 118°11'3 5.8
2017-Sep-24 17:00N 33°45' W 118°13'1 2.0
2017-Sep-24 16:30N 33°46' W 118°13'0 0.2
2017-Sep-24 16:01N 33°46' W 118°13'0 0.0
2017-Sep-24 15:21N 33°46' W 118°13'0 0.0
2017-Sep-24 14:57N 33°46' W 118°13'0 0.0
2017-Sep-24 14:27N 33°46' W 118°13'0 0.0
2017-Sep-24 14:00N 33°46' W 118°13'0 0.0
2017-Sep-24 13:30N 33°46' W 118°13'0 0.0
2017-Sep-24 12:57N 33°46' W 118°13'0 0.0
2017-Sep-24 12:30N 33°46' W 118°13'0 0.0
2017-Sep-24 11:57N 33°46' W 118°13'0 0.0
2017-Sep-24 11:27N 33°46' W 118°13'0 0.0
2017-Sep-24 10:54N 33°46' W 118°13'0 0.0
2017-Sep-24 10:30N 33°46' W 118°13'0 0.0
2017-Sep-24 10:00N 33°46' W 118°13'0 0.0
2017-Sep-24 09:30N 33°46' W 118°13'0 0.0
2017-Sep-24 09:00N 33°46' W 118°13'0 0.0
2017-Sep-24 08:27N 33°46' W 118°13'0 0.0
2017-Sep-24 06:18N 33°46' W 118°13'0 0.0
2017-Sep-24 05:57N 33°46' W 118°13'0 0.0
2017-Sep-24 05:30N 33°46' W 118°13'0 0.0
2017-Sep-24 05:00N 33°46' W 118°13'0 0.0
2017-Sep-24 04:30N 33°46' W 118°13'0 0.0
2017-Sep-24 04:00N 33°46' W 118°13'0 0.0
2017-Sep-24 03:30N 33°46' W 118°13'0 0.0
2017-Sep-24 03:00N 33°46' W 118°13'0 0.0
2017-Sep-24 02:30N 33°46' W 118°13'0 0.0
2017-Sep-24 02:00N 33°46' W 118°13'0 0.0
2017-Sep-24 01:30N 33°46' W 118°13'0 0.0
2017-Sep-24 00:57N 33°46' W 118°13'0 0.0
2017-Sep-24 00:21N 33°46' W 118°13'0 0.0
2017-Sep-24 00:00N 33°46' W 118°13'0 0.0
2017-Sep-23 23:24N 33°46' W 118°13'0 0.0
2017-Sep-23 22:57N 33°46' W 118°13'0 0.0
2017-Sep-23 22:30N 33°46' W 118°13'0 0.0
2017-Sep-23 21:15N 33°46' W 118°13'0 0.0
2017-Sep-23 20:57N 33°46' W 118°13'  

Dump ship's entire track history